Otsu, Japan
Current Conditions -  °F | °C
As of 5:00 PM on Thursday 23 Oct 2014 (Local Time) from RJOO Reporting Station
Few Clouds Few Clouds  
Wind Chill: 63°   Ceiling: Unl
Heat Index: 63°   Visibility: 6mi
Dew Point: 46°   Wind: 12mph
Humidity: 55%   Direction: 330°NNW
Pressure: 30.06"   Gusts: NA
Location:  35.01°N, 135.87°E
Report Text: RJOO 230800Z 33010KT 9999 FEW030 17/08 Q1018
Loading
Personal Weather Stations






























Interactive Weather Map
Tropical Storm Tracking
New forecast layout! Learn more

10-Day Weather Forecast

Advertisements
Track Severe Weather on mobile